Naval Anacostia Annex, DC

8:44 AM EDT on April 25, 2015 (GMT -0400)
Capitol Hill, Washington, DC USA | | Change Station
CLOSE
Current Station
Personal Weather Station
Location: Washington, DC
Elevation: 92 ft
Nearby Weather Stations

Elev 92 ft 38.89 °N, 76.99 °W | Updated 14 minutes ago

Overcast
Overcast
46.5 °F
Feels Like 45 °F
N
4.0
Wind Variable Wind from East

Today
High -- | Low -- °F
--% Chance of Precip.
Yesterday
High -- | Low -- °F
Precip. -- in
6:18 AM 7:54 PM
Waxing Crescent, 45% visible
Pressure 29.99 in
Visibility 10.0 miles
Clouds Mostly Cloudy 10000 ft
Overcast 25000 ft
Windchill 45 °F
Dew Point 35 °F
Humidity 65%
Rainfall 0.00 in
Snow Depth Not available.
UV 0 out of 12
Pollen 10.70 out of 12
Air Quality Not available.
Flu Activity Local Activity
METAR KDCA 251152Z 06005KT 10SM BKN100 OVC250 09/M02 A2999 RMK AO2 SLP154 T00891017 10106 20083 50006

More Conditions Fewer Conditions

Pressure 29.99 in
Visibility 10.0 miles
Clouds Mostly Cloudy 10000 ft
Overcast 25000 ft
Windchill 45 °F
Dew Point 35 °F
Humidity 65%
Rainfall 0.00 in
Snow Depth Not available.
UV 0 out of 12
Pollen 10.70 out of 12
Air Quality Not available.
Flu Activity Local Activity
METAR KDCA 251152Z 06005KT 10SM BKN100 OVC250 09/M02 A2999 RMK AO2 SLP154 T00891017 10106 20083 50006

More Conditions Fewer Conditions

10-Day Weather Forecast

Almanac

Astronomy

Apr. 25, 2015 Rise Set
Actual Time
Civil Twilight
Nautical Twilight
Astronomical Twilight
Moon
Length of Visible Light
Length of Day
Tomorrow will be .
, % of the Moon is Illuminated

Today's Extremes

State Highs State Lows

Community

WunderPhotos

Upload Photos

1,816,649 photos uploaded!

WunderBlogs® & News

Nearby

Air Quality

  Air Quality AQ Index Pollutant
Not available.

Snow Depth

Station Depth Elevation

Earthquake Activity

City Distance Mag. Time & Date
Minimum magnitude displayed is 2.5.

Coastal Water Temperatures

Place Temperature

Stations

Nearby Weather Stations

Station Location Temp. Windchill Dew Point Humidity Wind Precip. Elev Updated Type